Time;durP1;ratioP1;P1;durP2;ratioP2;P2;SDS_P1;SDS_P2;PMS_P1;PMS_P2;Temp;Humidity;BMP_temperature;BMP_pressure;BME280_temperature;BME280_humidity;BME280_pressure;Samples;Min_cycle;Max_cycle;Signal;HPM_P1;HPM_P2
2022/12/06 00:01:09;;;;;;;19.57;18.07;;;6.00;99.90;;;;;;5102931;28;20437;-48
2022/12/06 00:03:35;;;;;;;19.03;17.63;;;6.00;99.90;;;;;;5102094;28;20975;-51
2022/12/06 00:06:12;;;;;;;19.02;17.63;;;6.00;99.90;;;;;;5103077;28;20942;-54
2022/12/06 00:08:38;;;;;;;18.50;17.20;;;6.00;99.90;;;;;;5102534;28;20654;-53
2022/12/06 00:11:14;;;;;;;18.60;17.30;;;6.00;99.90;;;;;;5103033;28;21285;-47
2022/12/06 00:13:41;;;;;;;19.27;17.87;;;6.00;99.90;;;;;;5100722;27;20431;-53
2022/12/06 00:16:10;;;;;;;19.50;18.00;;;6.00;99.90;;;;;;5101919;28;20790;-50
2022/12/06 00:18:37;;;;;;;19.23;17.83;;;6.00;99.90;;;;;;5101737;28;20433;-52
2022/12/06 00:21:15;;;;;;;19.13;17.63;;;6.00;99.90;;;;;;5102585;28;20925;-48
2022/12/06 00:23:53;;;;;;;20.00;18.50;;;6.00;99.90;;;;;;5101655;28;20727;-57
2022/12/06 00:26:20;;;;;;;19.27;17.77;;;6.00;99.90;;;;;;5102132;28;20634;-47
2022/12/06 00:28:46;;;;;;;19.00;17.67;;;6.00;99.90;;;;;;5101819;28;20439;-52
2022/12/06 00:31:15;;;;;;;18.70;17.50;;;6.00;99.90;;;;;;5102204;28;20210;-48
2022/12/06 00:33:41;;;;;;;19.37;18.07;;;5.90;99.90;;;;;;5101036;28;20433;-47
2022/12/06 00:36:11;;;;;;;20.67;18.97;;;5.90;99.90;;;;;;5101844;28;20413;-55
2022/12/06 00:38:36;;;;;;;18.98;17.67;;;6.00;99.90;;;;;;5101570;28;20411;-50
2022/12/06 00:41:08;;;;;;;18.80;17.50;;;5.90;99.90;;;;;;5102400;28;20664;-53
2022/12/06 00:43:35;;;;;;;18.33;17.13;;;6.00;99.90;;;;;;5100677;28;20202;-54
2022/12/06 00:46:02;;;;;;;19.07;17.77;;;6.00;99.90;;;;;;5101608;28;20474;-56
2022/12/06 00:48:28;;;;;;;18.40;17.10;;;6.00;99.90;;;;;;5100684;28;20451;-52
2022/12/06 00:50:54;;;;;;;19.43;18.03;;;6.00;99.90;;;;;;5102208;28;20488;-50
2022/12/06 00:53:21;;;;;;;18.90;17.60;;;6.00;99.90;;;;;;5099868;28;20628;-57
2022/12/06 00:55:47;;;;;;;19.20;17.90;;;6.00;99.90;;;;;;5101707;28;20434;-49
2022/12/06 00:58:13;;;;;;;18.50;17.30;;;5.90;99.90;;;;;;5101434;28;20482;-48
2022/12/06 01:00:39;;;;;;;19.87;18.37;;;5.90;99.90;;;;;;5100432;28;20443;-55
2022/12/06 01:03:05;;;;;;;19.35;17.95;;;5.90;99.90;;;;;;5101897;28;20684;-48
2022/12/06 01:05:31;;;;;;;19.00;17.70;;;5.90;99.90;;;;;;5100938;28;20282;-53
2022/12/06 01:07:57;;;;;;;18.63;17.33;;;5.90;99.90;;;;;;5100502;28;20190;-47
2022/12/06 01:10:23;;;;;;;19.00;17.70;;;5.90;99.90;;;;;;5100904;28;20468;-50
2022/12/06 01:12:48;;;;;;;18.70;17.47;;;5.90;99.90;;;;;;5101715;28;20504;-48
2022/12/06 01:15:15;;;;;;;18.13;16.93;;;6.00;99.90;;;;;;5098424;28;20440;-52
2022/12/06 01:17:40;;;;;;;18.80;17.50;;;6.00;99.90;;;;;;5099785;28;20241;-48
2022/12/06 01:20:06;;;;;;;18.83;17.53;;;6.00;99.90;;;;;;5098832;28;20455;-49
2022/12/06 01:22:32;;;;;;;18.57;17.27;;;6.00;99.90;;;;;;5100757;28;20213;-53
2022/12/06 01:24:58;;;;;;;18.37;17.10;;;6.00;99.90;;;;;;5100211;28;20437;-59
2022/12/06 01:27:23;;;;;;;18.87;17.47;;;5.90;99.90;;;;;;5101245;28;20555;-50
2022/12/06 01:29:49;;;;;;;18.70;17.40;;;5.90;99.90;;;;;;5100732;28;20678;-49
2022/12/06 01:32:15;;;;;;;18.67;17.37;;;5.90;99.90;;;;;;5099667;28;20182;-52
2022/12/06 01:34:40;;;;;;;18.03;16.83;;;5.90;99.90;;;;;;5100600;28;20193;-52
2022/12/06 01:37:06;;;;;;;18.73;17.43;;;6.00;99.90;;;;;;5099587;28;20296;-48
2022/12/06 01:39:31;;;;;;;17.80;16.53;;;6.00;99.90;;;;;;5100683;28;20649;-49
2022/12/06 01:41:57;;;;;;;18.70;17.40;;;6.00;99.90;;;;;;5099513;28;20187;-48
2022/12/06 01:44:43;;;;;;;17.80;16.60;;;6.00;99.90;;;;;;5098937;28;20651;-47
2022/12/06 01:47:14;;;;;;;18.73;17.43;;;5.90;99.90;;;;;;5101017;28;20171;-48
2022/12/06 01:49:42;;;;;;;18.88;17.45;;;5.90;99.90;;;;;;5096615;28;21343;-46
2022/12/06 01:52:11;;;;;;;19.30;17.98;;;5.90;99.90;;;;;;5101134;28;20830;-52
2022/12/06 01:54:37;;;;;;;19.13;17.53;;;5.90;99.90;;;;;;5099906;28;20185;-47
2022/12/06 01:57:06;;;;;;;18.90;17.50;;;5.80;99.90;;;;;;5100805;28;20426;-48
2022/12/06 01:59:31;;;;;;;18.77;17.50;;;5.80;99.90;;;;;;5100128;28;20189;-52
2022/12/06 02:01:57;;;;;;;17.70;16.37;;;5.80;99.90;;;;;;5101100;28;20186;-51
2022/12/06 02:04:23;;;;;;;18.13;16.83;;;5.80;99.90;;;;;;5098075;28;20210;-49
2022/12/06 02:06:52;;;;;;;18.40;17.10;;;5.80;99.90;;;;;;5100573;28;21041;-51
2022/12/06 02:09:20;;;;;;;19.07;17.67;;;5.80;99.90;;;;;;5098773;28;20436;-51
2022/12/06 02:11:46;;;;;;;18.90;17.40;;;5.70;99.90;;;;;;5100966;28;20464;-47
2022/12/06 02:14:18;;;;;;;19.43;18.13;;;5.70;99.90;;;;;;5098992;28;20817;-51
2022/12/06 02:17:18;;;;;;;19.17;17.87;;;5.70;99.90;;;;;;5099845;27;20497;-53
2022/12/06 02:19:54;;;;;;;19.40;17.85;;;5.70;99.90;;;;;;5098597;28;20958;-52
2022/12/06 02:22:23;;;;;;;19.80;18.40;;;5.70;99.90;;;;;;5100436;28;20202;-48
2022/12/06 02:25:14;;;;;;;19.30;17.90;;;5.70;99.90;;;;;;5100032;28;20420;-58
2022/12/06 02:28:12;;;;;;;20.23;18.70;;;5.80;99.90;;;;;;5098381;28;20192;-47
2022/12/06 02:30:49;;;;;;;19.70;18.20;;;5.80;99.90;;;;;;5081866;28;20309;-53
2022/12/06 02:33:27;;;;;;;18.92;17.63;;;5.80;99.90;;;;;;5099836;28;20932;-54
2022/12/06 02:36:11;;;;;;;20.10;18.40;;;5.80;99.90;;;;;;5099531;28;20181;-47
2022/12/06 02:38:50;;;;;;;19.52;17.80;;;5.80;99.90;;;;;;5098601;28;20450;-50
2022/12/06 02:41:32;;;;;;;18.95;17.55;;;5.70;99.90;;;;;;5099960;28;20267;-54
2022/12/06 02:44:05;;;;;;;19.60;18.10;;;5.70;99.90;;;;;;5099187;28;20650;-57
2022/12/06 02:46:38;;;;;;;19.50;18.00;;;5.70;99.90;;;;;;5099400;28;20434;-53
2022/12/06 02:49:06;;;;;;;19.25;17.85;;;5.70;99.90;;;;;;5099808;28;20424;-48
2022/12/06 02:51:35;;;;;;;19.08;17.67;;;5.70;99.90;;;;;;5098996;28;20213;-53
2022/12/06 02:54:05;;;;;;;21.02;19.20;;;5.70;99.90;;;;;;5099685;28;20180;-55
2022/12/06 02:56:32;;;;;;;19.05;17.63;;;5.60;99.90;;;;;;5096834;28;20182;-53
2022/12/06 02:58:58;;;;;;;20.25;18.75;;;5.70;99.90;;;;;;5098387;28;20212;-50
2022/12/06 03:01:29;;;;;;;20.10;18.60;;;5.70;99.90;;;;;;5097917;28;20289;-50
2022/12/06 03:04:30;;;;;;;20.50;18.70;;;5.70;99.90;;;;;;5099815;28;20184;-53
2022/12/06 03:07:44;;;;;;;19.20;17.80;;;5.70;99.90;;;;;;5098929;28;20681;-53
2022/12/06 03:10:28;;;;;;;20.27;18.60;;;5.70;99.90;;;;;;5081005;28;20217;-54
2022/12/06 03:13:02;;;;;;;19.95;18.45;;;5.60;99.90;;;;;;5098620;28;20853;-54
2022/12/06 03:15:46;;;;;;;20.75;19.02;;;5.60;99.90;;;;;;5099068;28;20266;-53
2022/12/06 03:18:22;;;;;;;19.47;17.87;;;5.70;99.90;;;;;;5102642;28;20276;-53
2022/12/06 03:20:55;;;;;;;20.40;18.80;;;5.70;99.90;;;;;;5102624;28;20892;-49
2022/12/06 03:23:26;;;;;;;19.85;18.33;;;5.60;99.90;;;;;;5103408;28;20211;-50
2022/12/06 03:25:57;;;;;;;19.80;18.30;;;5.70;99.90;;;;;;5102921;28;20202;-51
2022/12/06 03:28:23;;;;;;;20.17;18.57;;;5.70;99.90;;;;;;5103278;28;20427;-49
2022/12/06 03:30:52;;;;;;;19.97;18.33;;;5.70;99.90;;;;;;5102754;28;21367;-51
2022/12/06 03:33:21;;;;;;;20.13;18.63;;;5.70;99.90;;;;;;5104302;28;20643;-52
2022/12/06 03:35:49;;;;;;;20.00;18.33;;;5.70;99.90;;;;;;5102489;28;20180;-52
2022/12/06 03:38:24;;;;;;;20.25;18.73;;;5.70;99.90;;;;;;5103833;28;20533;-50
2022/12/06 03:40:53;;;;;;;19.83;18.33;;;5.70;99.90;;;;;;5101886;28;20647;-54
2022/12/06 03:43:19;;;;;;;19.83;18.23;;;5.70;99.90;;;;;;5101662;28;20220;-52
2022/12/06 03:45:55;;;;;;;19.83;18.33;;;5.70;99.90;;;;;;5103393;28;20272;-53
2022/12/06 03:48:28;;;;;;;20.53;18.90;;;5.70;99.90;;;;;;5102285;28;20237;-48
2022/12/06 03:51:00;;;;;;;20.88;19.08;;;5.70;99.90;;;;;;5103375;28;20453;-50
2022/12/06 03:53:26;;;;;;;20.23;18.63;;;5.60;99.90;;;;;;5102472;28;20275;-54
2022/12/06 03:55:51;;;;;;;19.87;18.27;;;5.70;99.90;;;;;;5103008;28;20608;-53
2022/12/06 03:58:17;;;;;;;19.77;18.30;;;5.70;99.90;;;;;;5101210;28;20207;-52
2022/12/06 04:00:43;;;;;;;18.83;17.43;;;5.80;99.90;;;;;;5101482;28;20327;-51
2022/12/06 04:03:09;;;;;;;19.90;18.30;;;5.80;99.90;;;;;;5102142;28;20211;-53
2022/12/06 04:05:34;;;;;;;19.77;18.20;;;5.80;99.90;;;;;;5102032;28;20439;-51
2022/12/06 04:08:00;;;;;;;20.67;19.10;;;5.80;99.90;;;;;;5101467;28;20184;-55
2022/12/06 04:10:25;;;;;;;21.20;19.40;;;5.70;99.90;;;;;;5101908;28;20741;-53
2022/12/06 04:13:00;;;;;;;20.10;18.30;;;5.70;99.90;;;;;;5102155;28;20542;-55
2022/12/06 04:15:32;;;;;;;21.13;19.43;;;5.70;99.90;;;;;;5102816;28;20181;-51
2022/12/06 04:18:12;;;;;;;20.38;18.83;;;5.70;99.90;;;;;;5099684;28;20478;-54
2022/12/06 04:23:48;;;;;;;19.52;17.92;;;5.70;99.90;;;;;;5101272;28;20551;-52
2022/12/06 04:26:16;;;;;;;19.70;18.08;;;5.70;99.90;;;;;;5102288;28;20176;-54
2022/12/06 04:39:41;;;;;;;19.98;18.20;;;5.70;99.90;;;;;;5102474;28;20286;-50
2022/12/06 04:44:51;;;;;;;19.50;18.00;;;5.70;99.90;;;;;;5102319;28;20173;-55
2022/12/06 04:47:17;;;;;;;18.90;17.40;;;5.70;99.90;;;;;;5100405;28;20574;-53
2022/12/06 04:49:42;;;;;;;20.17;18.47;;;5.70;99.90;;;;;;5101783;28;20180;-54
2022/12/06 04:52:09;;;;;;;19.40;17.80;;;5.70;99.90;;;;;;5101292;28;20195;-53
2022/12/06 04:54:35;;;;;;;19.17;17.48;;;5.80;99.90;;;;;;5101816;27;20185;-54
2022/12/06 04:57:01;;;;;;;17.95;16.55;;;5.70;99.90;;;;;;5101355;28;20184;-51
2022/12/06 04:59:27;;;;;;;19.05;17.45;;;5.70;99.90;;;;;;5102045;28;20257;-52
2022/12/06 05:01:54;;;;;;;18.37;16.97;;;5.70;99.90;;;;;;5101442;28;20189;-47
2022/12/06 05:04:20;;;;;;;18.90;17.38;;;5.70;99.90;;;;;;5101400;28;20439;-53
2022/12/06 05:06:46;;;;;;;20.30;18.63;;;5.70;99.90;;;;;;5100435;28;20824;-48
2022/12/06 05:09:13;;;;;;;19.52;18.05;;;5.70;99.90;;;;;;5101348;28;20309;-48
2022/12/06 05:11:38;;;;;;;18.55;17.25;;;5.70;99.90;;;;;;5101242;28;20550;-52
2022/12/06 05:14:04;;;;;;;19.13;17.63;;;5.60;99.90;;;;;;5098942;28;20189;-52
2022/12/06 05:16:30;;;;;;;19.00;17.60;;;5.60;99.90;;;;;;5100363;28;20227;-53
2022/12/06 05:18:56;;;;;;;18.83;17.43;;;5.60;99.90;;;;;;5099475;28;20458;-50
2022/12/06 05:21:23;;;;;;;18.40;17.07;;;5.70;99.90;;;;;;5101203;28;20211;-47
2022/12/06 05:23:53;;;;;;;18.75;17.33;;;5.60;99.90;;;;;;5100521;28;20427;-49
2022/12/06 05:26:20;;;;;;;18.77;17.20;;;5.60;99.90;;;;;;5101697;28;20578;-50
2022/12/06 05:28:47;;;;;;;18.77;17.27;;;5.60;99.90;;;;;;5100930;28;21220;-48
2022/12/06 05:31:14;;;;;;;18.67;17.17;;;5.60;99.90;;;;;;5100650;28;20184;-50
2022/12/06 05:33:40;;;;;;;18.25;16.95;;;5.70;99.90;;;;;;5100080;28;20265;-48
2022/12/06 05:36:11;;;;;;;18.10;16.73;;;5.70;99.90;;;;;;5099371;28;20263;-53
2022/12/06 05:38:37;;;;;;;17.90;16.52;;;5.70;99.90;;;;;;5098166;28;21196;-51
2022/12/06 05:41:03;;;;;;;18.83;17.43;;;5.60;99.90;;;;;;5098986;28;20186;-49
2022/12/06 05:43:29;;;;;;;16.75;15.50;;;5.60;99.90;;;;;;5100101;28;20181;-54
2022/12/06 05:45:56;;;;;;;24.40;20.80;;;5.70;99.90;;;;;;5101130;28;20183;-49
2022/12/06 05:48:22;;;;;;;17.08;15.77;;;5.60;99.90;;;;;;5098756;28;20968;-52
2022/12/06 05:50:49;;;;;;;16.55;15.23;;;5.60;99.90;;;;;;5098299;28;20283;-51
2022/12/06 05:53:15;;;;;;;17.88;16.30;;;5.60;99.90;;;;;;5097823;28;20173;-53
2022/12/06 05:55:41;;;;;;;18.25;16.83;;;5.60;99.90;;;;;;5098783;28;20185;-51
2022/12/06 05:58:07;;;;;;;19.55;17.75;;;5.50;99.90;;;;;;5098512;28;20222;-51
2022/12/06 06:00:33;;;;;;;19.20;17.60;;;5.50;99.90;;;;;;5097795;28;20271;-51
2022/12/06 06:02:59;;;;;;;18.77;17.27;;;5.50;99.90;;;;;;5100541;28;20584;-51
2022/12/06 06:05:25;;;;;;;19.87;18.37;;;5.50;99.90;;;;;;5101121;28;20832;-51
2022/12/06 06:07:50;;;;;;;19.80;18.30;;;5.50;99.90;;;;;;5100529;28;20195;-57
2022/12/06 06:10:16;;;;;;;19.37;17.93;;;5.60;99.90;;;;;;5100155;28;20198;-49
2022/12/06 06:12:43;;;;;;;20.05;18.30;;;5.60;99.90;;;;;;5100627;28;20287;-49
2022/12/06 06:15:10;;;;;;;19.60;18.00;;;5.50;99.90;;;;;;5100246;28;20181;-54
2022/12/06 06:17:35;;;;;;;18.70;17.30;;;5.60;99.90;;;;;;5100188;28;20682;-52
2022/12/06 06:20:04;;;;;;;19.37;17.87;;;5.50;99.90;;;;;;5100377;28;20181;-57
2022/12/06 06:22:31;;;;;;;19.17;17.73;;;5.50;99.90;;;;;;5098438;28;20194;-49
2022/12/06 06:24:57;;;;;;;19.63;17.92;;;5.40;99.90;;;;;;5100118;28;20181;-52
2022/12/06 06:27:23;;;;;;;18.90;17.40;;;5.50;99.90;;;;;;5100456;28;20178;-50
2022/12/06 06:29:48;;;;;;;20.27;18.40;;;5.50;99.90;;;;;;5099999;28;20201;-51
2022/12/06 06:32:14;;;;;;;20.33;18.63;;;5.50;99.90;;;;;;5100126;28;20241;-48
2022/12/06 06:34:39;;;;;;;21.50;19.60;;;5.50;99.90;;;;;;5100356;28;20182;-47
2022/12/06 06:37:05;;;;;;;21.53;19.83;;;5.50;99.90;;;;;;5100059;28;20195;-49
2022/12/06 06:39:31;;;;;;;20.20;18.40;;;5.50;99.90;;;;;;5100176;28;20582;-50
2022/12/06 06:41:56;;;;;;;20.27;18.70;;;5.50;99.90;;;;;;5100312;28;20187;-49
2022/12/06 06:44:22;;;;;;;20.43;18.73;;;5.60;99.90;;;;;;5099938;28;20524;-48
2022/12/06 06:46:47;;;;;;;20.00;18.40;;;5.50;99.90;;;;;;5100026;28;20251;-57
2022/12/06 06:49:13;;;;;;;21.00;19.00;;;5.50;99.90;;;;;;5099143;28;20186;-57
2022/12/06 06:51:39;;;;;;;20.20;18.50;;;5.50;99.90;;;;;;5097842;28;20228;-49
2022/12/06 06:54:04;;;;;;;21.37;19.47;;;5.50;99.90;;;;;;5092916;28;20184;-51
2022/12/06 06:56:30;;;;;;;22.23;20.17;;;5.50;99.90;;;;;;5098783;28;20695;-57
2022/12/06 06:58:55;;;;;;;20.47;18.80;;;5.50;99.90;;;;;;5096756;28;20174;-50
2022/12/06 07:01:23;;;;;;;21.50;19.80;;;5.40;99.90;;;;;;5100065;28;20192;-47
2022/12/06 07:03:50;;;;;;;20.90;19.20;;;5.50;99.90;;;;;;5099889;28;20183;-51
2022/12/06 07:06:17;;;;;;;21.38;19.65;;;5.50;99.90;;;;;;5099619;28;20186;-53
2022/12/06 07:08:43;;;;;;;22.80;21.00;;;5.50;99.90;;;;;;5099631;28;20180;-51
2022/12/06 07:11:10;;;;;;;20.73;19.05;;;5.50;99.90;;;;;;5099642;28;20233;-51
2022/12/06 07:13:38;;;;;;;20.58;18.88;;;5.50;99.90;;;;;;5099495;28;20177;-51
2022/12/06 07:16:05;;;;;;;23.63;21.42;;;5.50;99.90;;;;;;5099760;28;20193;-50
2022/12/06 07:18:31;;;;;;;22.23;20.23;;;5.50;99.90;;;;;;5098433;28;20202;-51
2022/12/06 07:21:02;;;;;;;21.70;20.00;;;5.50;99.90;;;;;;5099918;28;20430;-58
2022/12/06 07:23:28;;;;;;;20.60;18.95;;;5.50;99.90;;;;;;5097663;28;20430;-52
2022/12/06 07:26:05;;;;;;;20.40;18.33;;;5.50;99.90;;;;;;5098980;28;20205;-50
2022/12/06 07:28:32;;;;;;;20.25;18.65;;;5.50;99.90;;;;;;5100085;28;20972;-53
2022/12/06 07:31:05;;;;;;;20.58;19.05;;;5.40;99.90;;;;;;5099882;28;20204;-50
2022/12/06 07:33:31;;;;;;;19.08;17.65;;;5.40;99.90;;;;;;5099604;28;20226;-47
2022/12/06 07:35:57;;;;;;;20.60;19.00;;;5.40;99.90;;;;;;5098148;28;20493;-48
2022/12/06 07:38:22;;;;;;;19.80;18.20;;;5.40;99.90;;;;;;5099432;28;20575;-53
2022/12/06 07:40:48;;;;;;;20.10;18.50;;;5.20;99.90;;;;;;5098361;28;20571;-52
2022/12/06 07:45:57;;;;;;;20.40;18.88;;;5.10;99.90;;;;;;5099662;28;20317;-53
2022/12/06 07:48:23;;;;;;;20.10;18.60;;;5.10;99.90;;;;;;5099509;28;20649;-48
2022/12/06 07:50:51;;;;;;;21.07;19.37;;;5.10;99.90;;;;;;5098554;28;20233;-48
2022/12/06 07:53:17;;;;;;;20.70;19.00;;;5.00;99.90;;;;;;5096591;28;20172;-47
2022/12/06 07:55:42;;;;;;;20.93;19.33;;;5.00;99.90;;;;;;5099430;28;20183;-49
2022/12/06 07:58:08;;;;;;;20.17;18.60;;;4.90;99.90;;;;;;5099290;28;20452;-52
2022/12/06 08:00:35;;;;;;;21.70;19.90;;;4.80;99.90;;;;;;5099215;28;20232;-52
2022/12/06 08:03:00;;;;;;;20.45;18.75;;;4.90;99.90;;;;;;5102453;28;20201;-49
2022/12/06 08:05:26;;;;;;;20.63;18.97;;;4.90;99.90;;;;;;5102402;28;20262;-49
2022/12/06 08:07:52;;;;;;;21.90;19.90;;;4.90;99.90;;;;;;5103150;28;20202;-49
2022/12/06 08:10:17;;;;;;;21.47;19.73;;;4.90;99.90;;;;;;5101377;28;20205;-51
2022/12/06 08:12:43;;;;;;;20.87;19.13;;;5.00;99.90;;;;;;5102993;28;20194;-51
2022/12/06 08:15:11;;;;;;;19.47;17.87;;;5.00;99.90;;;;;;5102860;28;20188;-48
2022/12/06 08:17:39;;;;;;;20.02;18.42;;;5.00;99.90;;;;;;5102727;28;20558;-52
2022/12/06 08:20:08;;;;;;;20.05;18.35;;;5.00;99.90;;;;;;5102103;28;20490;-50
2022/12/06 08:22:34;;;;;;;20.63;18.92;;;5.10;99.90;;;;;;5100814;28;20622;-50
2022/12/06 08:24:59;;;;;;;20.93;19.37;;;5.10;99.90;;;;;;5101630;28;20294;-49
2022/12/06 08:27:25;;;;;;;21.17;19.47;;;5.10;99.90;;;;;;5101325;28;20183;-48
2022/12/06 08:29:51;;;;;;;21.43;19.73;;;5.10;99.90;;;;;;5102434;28;20176;-50
2022/12/06 08:32:17;;;;;;;21.20;19.37;;;5.10;99.90;;;;;;5102588;28;20176;-54
2022/12/06 08:34:42;;;;;;;20.57;18.97;;;5.10;99.90;;;;;;5102251;28;20208;-47
2022/12/06 08:37:08;;;;;;;19.87;18.37;;;5.20;99.90;;;;;;5102728;28;20422;-47
2022/12/06 08:39:34;;;;;;;20.77;19.10;;;5.10;99.90;;;;;;5102469;28;20631;-52
2022/12/06 08:42:05;;;;;;;20.90;19.30;;;5.10;99.90;;;;;;5102632;28;20283;-57
2022/12/06 08:44:31;;;;;;;19.90;18.35;;;5.10;99.90;;;;;;5101945;28;20184;-51
2022/12/06 08:46:58;;;;;;;21.00;19.20;;;5.10;99.90;;;;;;5102326;28;20184;-53
2022/12/06 08:49:26;;;;;;;21.73;19.85;;;5.10;99.90;;;;;;5101926;28;20236;-52
2022/12/06 08:51:52;;;;;;;19.55;18.05;;;5.10;99.90;;;;;;5101348;28;20682;-54
2022/12/06 08:54:23;;;;;;;19.92;18.42;;;5.10;99.90;;;;;;5102113;28;20346;-50
2022/12/06 08:56:50;;;;;;;20.10;18.50;;;5.00;99.90;;;;;;5102202;28;20179;-50
2022/12/06 08:59:16;;;;;;;20.23;18.52;;;5.10;99.90;;;;;;5102006;28;20271;-49
2022/12/06 09:01:43;;;;;;;19.77;18.20;;;5.10;99.90;;;;;;5101722;28;20871;-48
2022/12/06 09:04:10;;;;;;;20.27;18.67;;;5.10;99.90;;;;;;5101854;28;20628;-48
2022/12/06 09:06:37;;;;;;;20.58;18.83;;;5.00;99.90;;;;;;5102370;28;20188;-54
2022/12/06 09:09:03;;;;;;;20.92;19.23;;;4.90;99.90;;;;;;5101790;28;20171;-54
2022/12/06 09:11:29;;;;;;;20.40;18.70;;;4.90;99.90;;;;;;5101735;28;20214;-55
2022/12/06 09:13:54;;;;;;;21.07;19.43;;;4.90;99.90;;;;;;5100484;28;20568;-48
2022/12/06 09:16:22;;;;;;;22.00;20.20;;;4.90;99.90;;;;;;5101487;28;20228;-48
2022/12/06 09:18:50;;;;;;;21.75;19.65;;;5.00;99.90;;;;;;5101742;28;20189;-48
2022/12/06 09:21:22;;;;;;;20.42;18.75;;;5.00;99.90;;;;;;5099224;28;20183;-49
2022/12/06 09:23:48;;;;;;;20.95;19.05;;;5.10;99.90;;;;;;5099930;28;20204;-50
2022/12/06 09:26:15;;;;;;;20.98;19.17;;;5.10;99.90;;;;;;5101616;28;20295;-49
2022/12/06 09:28:42;;;;;;;20.58;18.65;;;5.10;99.90;;;;;;5100658;28;20240;-52
2022/12/06 09:31:08;;;;;;;20.60;18.90;;;5.10;99.90;;;;;;5101462;28;20196;-57
2022/12/06 09:33:35;;;;;;;21.80;20.00;;;5.20;99.90;;;;;;5101504;28;20177;-50
2022/12/06 09:36:05;;;;;;;20.63;19.00;;;5.20;99.90;;;;;;5101134;28;20183;-50
2022/12/06 09:38:34;;;;;;;20.90;19.20;;;5.30;99.90;;;;;;5099804;28;20193;-52
2022/12/06 09:41:27;;;;;;;19.88;18.27;;;5.30;99.90;;;;;;5100323;28;20177;-51
2022/12/06 09:44:14;;;;;;;20.40;18.67;;;5.40;99.90;;;;;;5101397;28;20478;-51
2022/12/06 09:46:51;;;;;;;20.58;18.88;;;5.50;99.90;;;;;;5101254;28;20215;-49
2022/12/06 09:49:27;;;;;;;20.17;18.27;;;5.50;99.90;;;;;;5099875;28;20915;-56
2022/12/06 09:52:09;;;;;;;21.20;19.40;;;5.50;99.90;;;;;;5100940;28;20561;-55
2022/12/06 09:54:43;;;;;;;20.40;18.60;;;5.60;99.90;;;;;;5099393;28;20199;-56
2022/12/06 09:57:47;;;;;;;20.17;18.42;;;5.70;99.90;;;;;;5100496;28;20504;-53
2022/12/06 10:00:20;;;;;;;21.20;19.55;;;5.60;99.90;;;;;;5099768;28;20298;-55
2022/12/06 10:03:13;;;;;;;20.77;18.98;;;5.60;99.90;;;;;;5100906;28;20185;-55
2022/12/06 10:05:49;;;;;;;21.02;19.33;;;5.60;99.90;;;;;;5100687;28;20214;-55
2022/12/06 10:08:45;;;;;;;19.50;17.90;;;5.50;99.90;;;;;;5100005;28;20484;-58
2022/12/06 10:11:29;;;;;;;19.67;18.07;;;5.60;99.90;;;;;;5100528;28;20532;-54
2022/12/06 10:14:30;;;;;;;21.20;19.50;;;5.60;99.90;;;;;;5100099;28;20445;-54
2022/12/06 10:17:27;;;;;;;20.40;18.80;;;5.70;99.90;;;;;;5100210;28;20752;-50
2022/12/06 10:20:10;;;;;;;21.17;19.48;;;5.70;99.90;;;;;;5100066;28;20200;-55
2022/12/06 10:22:48;;;;;;;20.63;18.93;;;5.70;99.90;;;;;;5100350;28;20185;-55
2022/12/06 10:25:24;;;;;;;19.75;18.15;;;5.70;99.90;;;;;;5099662;28;20843;-58
2022/12/06 10:28:04;;;;;;;20.73;19.02;;;5.70;99.90;;;;;;5100562;28;20207;-54
2022/12/06 10:30:33;;;;;;;20.58;18.98;;;5.70;99.90;;;;;;5099686;28;20226;-53
2022/12/06 10:33:10;;;;;;;20.00;18.40;;;5.70;99.90;;;;;;5099498;27;20774;-52
2022/12/06 10:35:42;;;;;;;19.10;17.70;;;5.70;99.90;;;;;;5100272;28;20655;-54
2022/12/06 10:38:22;;;;;;;19.48;17.92;;;5.70;99.90;;;;;;5098532;28;20717;-52
2022/12/06 10:40:50;;;;;;;19.48;17.98;;;5.80;99.90;;;;;;5098658;28;20346;-53
2022/12/06 10:43:22;;;;;;;20.38;18.67;;;5.80;99.90;;;;;;5099383;28;20793;-52
2022/12/06 10:48:59;;;;;;;19.17;17.52;;;5.80;99.90;;;;;;5100454;28;20235;-53
2022/12/06 10:51:41;;;;;;;19.55;18.02;;;5.80;99.90;;;;;;5099512;28;20200;-48
2022/12/06 10:54:31;;;;;;;20.27;18.60;;;5.70;99.90;;;;;;5100110;28;20185;-52
2022/12/06 10:57:01;;;;;;;18.40;17.00;;;5.60;99.90;;;;;;5085342;28;20196;-57
2022/12/06 10:59:32;;;;;;;19.97;18.27;;;5.70;99.90;;;;;;5115860;27;20190;-46
2022/12/06 11:02:03;;;;;;;19.70;18.00;;;5.60;99.90;;;;;;5099552;28;20434;-49
2022/12/06 11:04:33;;;;;;;19.90;18.40;;;5.60;99.90;;;;;;5100085;28;20431;-55
2022/12/06 11:07:12;;;;;;;21.13;19.30;;;5.60;99.90;;;;;;5098648;28;20176;-48
2022/12/06 11:09:44;;;;;;;19.63;18.02;;;5.50;99.90;;;;;;5099586;28;20190;-50
2022/12/06 11:12:31;;;;;;;19.73;18.23;;;5.50;99.90;;;;;;5099626;28;20201;-57
2022/12/06 11:15:20;;;;;;;19.77;18.23;;;5.60;99.90;;;;;;5099545;28;20173;-54
2022/12/06 11:17:51;;;;;;;20.23;18.52;;;5.50;99.90;;;;;;5097571;28;20609;-56
2022/12/06 11:20:28;;;;;;;19.13;17.63;;;5.50;99.90;;;;;;5099376;28;20175;-54
2022/12/06 11:23:11;;;;;;;19.98;18.38;;;5.50;99.90;;;;;;5099390;28;20441;-50
2022/12/06 11:26:19;;;;;;;19.60;18.00;;;5.50;99.90;;;;;;5099522;28;20657;-48
2022/12/06 11:29:03;;;;;;;17.67;16.25;;;5.40;99.90;;;;;;5098760;28;20181;-50
2022/12/06 11:31:52;;;;;;;19.00;17.50;;;5.40;99.90;;;;;;5099179;28;20199;-53
2022/12/06 11:34:21;;;;;;;19.00;17.60;;;5.30;99.90;;;;;;5099698;28;20259;-54
2022/12/06 11:36:49;;;;;;;19.10;17.50;;;5.30;99.90;;;;;;5099162;28;20187;-49
2022/12/06 11:39:15;;;;;;;19.40;17.90;;;5.20;99.90;;;;;;5103567;28;20198;-51
2022/12/06 11:41:44;;;;;;;18.10;16.60;;;5.20;99.90;;;;;;5103209;28;20222;-52
2022/12/06 11:44:19;;;;;;;18.95;17.45;;;5.20;99.90;;;;;;5103563;28;20645;-50
2022/12/06 11:46:53;;;;;;;19.33;17.83;;;5.10;99.90;;;;;;5102917;28;20664;-54
2022/12/06 11:49:39;;;;;;;19.05;17.45;;;5.00;99.90;;;;;;5103403;28;20190;-55
2022/12/06 11:52:10;;;;;;;19.60;18.00;;;5.10;99.90;;;;;;5103647;28;20204;-50
2022/12/06 11:54:47;;;;;;;20.08;18.38;;;5.10;99.90;;;;;;5102903;28;20277;-53
2022/12/06 11:57:18;;;;;;;19.88;18.27;;;5.00;99.90;;;;;;5102251;27;20179;-52
2022/12/06 12:00:13;;;;;;;20.80;19.20;;;5.10;99.90;;;;;;5103534;28;20227;-53
2022/12/06 12:02:41;;;;;;;18.67;17.17;;;5.10;99.90;;;;;;5102582;28;20213;-48
2022/12/06 12:05:16;;;;;;;19.50;17.80;;;5.10;99.90;;;;;;5102753;28;20223;-52
2022/12/06 12:07:47;;;;;;;19.23;17.65;;;5.10;99.90;;;;;;5102848;28;20172;-50
2022/12/06 12:10:31;;;;;;;19.27;17.77;;;5.20;99.90;;;;;;5103002;28;20704;-50
2022/12/06 12:15:55;;;;;;;19.25;17.85;;;5.20;99.90;;;;;;5101840;28;20222;-54
2022/12/06 12:18:28;;;;;;;18.35;16.95;;;5.20;99.90;;;;;;5102179;28;20184;-51
2022/12/06 12:20:55;;;;;;;20.77;19.15;;;5.20;99.90;;;;;;5102827;28;20224;-52
2022/12/06 12:23:24;;;;;;;22.55;20.58;;;5.30;99.90;;;;;;5101402;27;20801;-52
2022/12/06 12:26:03;;;;;;;21.77;20.08;;;5.20;99.90;;;;;;5101288;28;20360;-49
2022/12/06 12:28:33;;;;;;;21.85;20.05;;;5.20;99.90;;;;;;5102899;28;20622;-53
2022/12/06 12:31:15;;;;;;;21.10;19.40;;;5.20;99.90;;;;;;5102174;28;20277;-46
2022/12/06 12:33:40;;;;;;;20.10;18.52;;;5.20;99.90;;;;;;5102334;28;20276;-51
2022/12/06 12:36:06;;;;;;;21.17;19.27;;;5.20;99.90;;;;;;5101808;28;20607;-49
2022/12/06 12:38:48;;;;;;;20.20;18.50;;;5.10;99.90;;;;;;5101474;28;20217;-51
2022/12/06 12:41:36;;;;;;;20.88;19.08;;;5.10;99.90;;;;;;5102183;28;20400;-48
2022/12/06 12:44:12;;;;;;;20.58;18.88;;;5.10;99.90;;;;;;5102846;28;20553;-48
2022/12/06 12:46:43;;;;;;;19.75;18.05;;;5.20;99.90;;;;;;5102208;28;20235;-58
2022/12/06 12:49:23;;;;;;;20.13;18.60;;;5.20;99.90;;;;;;5102371;28;20184;-50
2022/12/06 12:51:50;;;;;;;18.70;17.20;;;5.20;99.90;;;;;;5085553;28;20220;-49
2022/12/06 12:54:25;;;;;;;19.55;18.05;;;5.10;99.90;;;;;;5102007;28;20171;-51
2022/12/06 12:56:51;;;;;;;18.70;17.20;;;5.20;99.90;;;;;;5102202;28;20192;-52
2022/12/06 12:59:20;;;;;;;18.95;17.38;;;5.10;99.90;;;;;;5101882;28;20264;-53
2022/12/06 13:01:54;;;;;;;18.25;16.85;;;5.10;99.90;;;;;;5101706;28;20535;-50
2022/12/06 13:04:32;;;;;;;19.30;17.80;;;5.00;99.90;;;;;;5101226;28;20204;-53
2022/12/06 13:07:02;;;;;;;19.67;18.13;;;5.10;99.90;;;;;;5102379;28;20302;-49
2022/12/06 13:09:36;;;;;;;17.85;16.33;;;5.00;99.90;;;;;;5100238;28;20717;-51
2022/12/06 13:12:12;;;;;;;19.35;17.55;;;5.10;99.90;;;;;;5100457;28;20350;-49
2022/12/06 13:14:48;;;;;;;20.27;18.67;;;5.00;99.90;;;;;;5101774;28;20211;-49
2022/12/06 13:17:13;;;;;;;20.10;18.50;;;5.00;99.90;;;;;;5101496;28;20227;-50
2022/12/06 13:19:44;;;;;;;21.30;19.40;;;4.90;99.90;;;;;;5101263;28;20514;-50